sensor_id;sensor_type;location;lat;lon;timestamp;P1;P2;P0
61815;PMS5003;57055;-35.296;149.168;2023-07-13T00:00:54;3;3;
61815;PMS5003;57055;-35.296;149.168;2023-07-13T00:03:23;5;5;
61815;PMS5003;57055;-35.296;149.168;2023-07-13T00:05:57;10;7;
61815;PMS5003;57055;-35.296;149.168;2023-07-13T00:08:29;6;4;
61815;PMS5003;57055;-35.296;149.168;2023-07-13T00:10:59;5;5;
61815;PMS5003;57055;-35.296;149.168;2023-07-13T00:13:29;5;5;
61815;PMS5003;57055;-35.296;149.168;2023-07-13T00:15:58;5;5;
61815;PMS5003;57055;-35.296;149.168;2023-07-13T00:18:27;5;5;
61815;PMS5003;57055;-35.296;149.168;2023-07-13T00:20:57;9;9;
61815;PMS5003;57055;-35.296;149.168;2023-07-13T00:23:27;8;8;
61815;PMS5003;57055;-35.296;149.168;2023-07-13T00:25:56;8;7;
61815;PMS5003;57055;-35.296;149.168;2023-07-13T00:28:25;7;7;
61815;PMS5003;57055;-35.296;149.168;2023-07-13T00:30:53;10;8;
61815;PMS5003;57055;-35.296;149.168;2023-07-13T00:33:22;7;7;
61815;PMS5003;57055;-35.296;149.168;2023-07-13T00:35:53;8;8;
61815;PMS5003;57055;-35.296;149.168;2023-07-13T00:38:23;10;8;
61815;PMS5003;57055;-35.296;149.168;2023-07-13T00:40:52;8;7;
61815;PMS5003;57055;-35.296;149.168;2023-07-13T00:43:21;7;7;
61815;PMS5003;57055;-35.296;149.168;2023-07-13T00:46:25;8;6;
61815;PMS5003;57055;-35.296;149.168;2023-07-13T00:48:56;11;8;
61815;PMS5003;57055;-35.296;149.168;2023-07-13T00:51:30;8;7;
61815;PMS5003;57055;-35.296;149.168;2023-07-13T00:54:05;7;6;
61815;PMS5003;57055;-35.296;149.168;2023-07-13T00:56:37;8;7;
61815;PMS5003;57055;-35.296;149.168;2023-07-13T00:59:07;8;7;
61815;PMS5003;57055;-35.296;149.168;2023-07-13T01:01:38;8;7;
61815;PMS5003;57055;-35.296;149.168;2023-07-13T01:04:07;8;8;
61815;PMS5003;57055;-35.296;149.168;2023-07-13T01:06:37;6;6;
61815;PMS5003;57055;-35.296;149.168;2023-07-13T01:09:07;8;6;
61815;PMS5003;57055;-35.296;149.168;2023-07-13T01:11:37;6;6;
61815;PMS5003;57055;-35.296;149.168;2023-07-13T01:14:06;5;5;
61815;PMS5003;57055;-35.296;149.168;2023-07-13T01:16:36;6;6;
61815;PMS5003;57055;-35.296;149.168;2023-07-13T01:19:09;7;7;
61815;PMS5003;57055;-35.296;149.168;2023-07-13T01:21:50;6;6;
61815;PMS5003;57055;-35.296;149.168;2023-07-13T01:24:20;7;7;
61815;PMS5003;57055;-35.296;149.168;2023-07-13T01:26:49;8;7;
61815;PMS5003;57055;-35.296;149.168;2023-07-13T01:29:18;7;5;
61815;PMS5003;57055;-35.296;149.168;2023-07-13T01:31:47;9;7;
61815;PMS5003;57055;-35.296;149.168;2023-07-13T01:34:16;7;7;
61815;PMS5003;57055;-35.296;149.168;2023-07-13T01:36:44;5;5;
61815;PMS5003;57055;-35.296;149.168;2023-07-13T01:39:13;5;5;
61815;PMS5003;57055;-35.296;149.168;2023-07-13T01:41:42;7;5;
61815;PMS5003;57055;-35.296;149.168;2023-07-13T01:44:11;5;3;
61815;PMS5003;57055;-35.296;149.168;2023-07-13T01:46:40;2;2;
61815;PMS5003;57055;-35.296;149.168;2023-07-13T01:49:09;7;4;
61815;PMS5003;57055;-35.296;149.168;2023-07-13T01:51:37;2;2;
61815;PMS5003;57055;-35.296;149.168;2023-07-13T01:54:06;5;4;
61815;PMS5003;57055;-35.296;149.168;2023-07-13T01:56:35;5;3;
61815;PMS5003;57055;-35.296;149.168;2023-07-13T01:59:04;4;4;
61815;PMS5003;57055;-35.296;149.168;2023-07-13T02:01:33;1;1;
61815;PMS5003;57055;-35.296;149.168;2023-07-13T02:04:01;3;3;
61815;PMS5003;57055;-35.296;149.168;2023-07-13T02:06:30;4;4;
61815;PMS5003;57055;-35.296;149.168;2023-07-13T02:08:59;3;3;
61815;PMS5003;57055;-35.296;149.168;2023-07-13T02:11:28;3;3;
61815;PMS5003;57055;-35.296;149.168;2023-07-13T02:13:57;3;3;
61815;PMS5003;57055;-35.296;149.168;2023-07-13T02:16:25;2;2;
61815;PMS5003;57055;-35.296;149.168;2023-07-13T02:18:54;3;3;
61815;PMS5003;57055;-35.296;149.168;2023-07-13T02:21:23;4;2;
61815;PMS5003;57055;-35.296;149.168;2023-07-13T02:23:53;3;2;
61815;PMS5003;57055;-35.296;149.168;2023-07-13T02:26:22;4;2;
61815;PMS5003;57055;-35.296;149.168;2023-07-13T02:28:51;4;4;
61815;PMS5003;57055;-35.296;149.168;2023-07-13T02:31:20;2;2;
61815;PMS5003;57055;-35.296;149.168;2023-07-13T02:33:48;2;1;
61815;PMS5003;57055;-35.296;149.168;2023-07-13T02:36:17;0;0;
61815;PMS5003;57055;-35.296;149.168;2023-07-13T02:38:46;3;3;
61815;PMS5003;57055;-35.296;149.168;2023-07-13T02:41:16;2;2;
61815;PMS5003;57055;-35.296;149.168;2023-07-13T02:43:45;1;1;
61815;PMS5003;57055;-35.296;149.168;2023-07-13T02:46:14;2;2;
61815;PMS5003;57055;-35.296;149.168;2023-07-13T02:48:43;1;1;
61815;PMS5003;57055;-35.296;149.168;2023-07-13T02:51:12;1;1;
61815;PMS5003;57055;-35.296;149.168;2023-07-13T02:53:41;1;1;
61815;PMS5003;57055;-35.296;149.168;2023-07-13T02:56:10;3;1;
61815;PMS5003;57055;-35.296;149.168;2023-07-13T02:58:39;1;1;
61815;PMS5003;57055;-35.296;149.168;2023-07-13T03:01:08;0;0;
61815;PMS5003;57055;-35.296;149.168;2023-07-13T03:03:39;2;2;
61815;PMS5003;57055;-35.296;149.168;2023-07-13T03:06:07;1;1;
61815;PMS5003;57055;-35.296;149.168;2023-07-13T03:08:36;0;0;
61815;PMS5003;57055;-35.296;149.168;2023-07-13T03:11:06;1;1;
61815;PMS5003;57055;-35.296;149.168;2023-07-13T03:13:38;1;1;
61815;PMS5003;57055;-35.296;149.168;2023-07-13T03:16:08;0;0;
61815;PMS5003;57055;-35.296;149.168;2023-07-13T03:18:37;1;1;
61815;PMS5003;57055;-35.296;149.168;2023-07-13T03:21:06;0;0;
61815;PMS5003;57055;-35.296;149.168;2023-07-13T03:23:35;1;1;
61815;PMS5003;57055;-35.296;149.168;2023-07-13T03:26:05;1;1;
61815;PMS5003;57055;-35.296;149.168;2023-07-13T03:28:35;1;1;
61815;PMS5003;57055;-35.296;149.168;2023-07-13T03:31:05;0;0;
61815;PMS5003;57055;-35.296;149.168;2023-07-13T03:33:36;1;1;
61815;PMS5003;57055;-35.296;149.168;2023-07-13T03:36:06;2;2;
61815;PMS5003;57055;-35.296;149.168;2023-07-13T03:38:38;1;1;
61815;PMS5003;57055;-35.296;149.168;2023-07-13T03:41:07;2;1;
61815;PMS5003;57055;-35.296;149.168;2023-07-13T03:43:35;1;1;
61815;PMS5003;57055;-35.296;149.168;2023-07-13T03:46:04;0;0;
61815;PMS5003;57055;-35.296;149.168;2023-07-13T03:48:33;1;1;
61815;PMS5003;57055;-35.296;149.168;2023-07-13T03:51:01;1;0;
61815;PMS5003;57055;-35.296;149.168;2023-07-13T03:53:30;1;1;
61815;PMS5003;57055;-35.296;149.168;2023-07-13T03:55:59;1;1;
61815;PMS5003;57055;-35.296;149.168;2023-07-13T03:58:30;0;0;
61815;PMS5003;57055;-35.296;149.168;2023-07-13T04:01:02;0;0;
61815;PMS5003;57055;-35.296;149.168;2023-07-13T04:03:33;0;0;
61815;PMS5003;57055;-35.296;149.168;2023-07-13T04:06:03;0;0;
61815;PMS5003;57055;-35.296;149.168;2023-07-13T04:08:34;0;0;
61815;PMS5003;57055;-35.296;149.168;2023-07-13T04:11:04;0;0;
61815;PMS5003;57055;-35.296;149.168;2023-07-13T04:13:34;1;1;
61815;PMS5003;57055;-35.296;149.168;2023-07-13T04:16:02;1;1;
61815;PMS5003;57055;-35.296;149.168;2023-07-13T04:18:31;2;1;
61815;PMS5003;57055;-35.296;149.168;2023-07-13T04:21:00;0;0;
61815;PMS5003;57055;-35.296;149.168;2023-07-13T04:23:28;1;1;
61815;PMS5003;57055;-35.296;149.168;2023-07-13T04:25:57;1;1;
61815;PMS5003;57055;-35.296;149.168;2023-07-13T04:28:26;2;1;
61815;PMS5003;57055;-35.296;149.168;2023-07-13T04:30:55;0;0;
61815;PMS5003;57055;-35.296;149.168;2023-07-13T04:33:24;0;0;
61815;PMS5003;57055;-35.296;149.168;2023-07-13T04:35:54;0;0;
61815;PMS5003;57055;-35.296;149.168;2023-07-13T04:38:24;1;1;
61815;PMS5003;57055;-35.296;149.168;2023-07-13T04:40:54;0;0;
61815;PMS5003;57055;-35.296;149.168;2023-07-13T04:43:23;0;0;
61815;PMS5003;57055;-35.296;149.168;2023-07-13T04:45:53;0;0;
61815;PMS5003;57055;-35.296;149.168;2023-07-13T04:48:22;0;0;
61815;PMS5003;57055;-35.296;149.168;2023-07-13T04:50:55;0;0;
61815;PMS5003;57055;-35.296;149.168;2023-07-13T04:53:25;0;0;
61815;PMS5003;57055;-35.296;149.168;2023-07-13T04:56:01;1;1;
61815;PMS5003;57055;-35.296;149.168;2023-07-13T04:58:31;2;1;
61815;PMS5003;57055;-35.296;149.168;2023-07-13T05:01:01;1;1;
61815;PMS5003;57055;-35.296;149.168;2023-07-13T05:03:31;2;2;
61815;PMS5003;57055;-35.296;149.168;2023-07-13T05:06:02;1;1;
61815;PMS5003;57055;-35.296;149.168;2023-07-13T05:08:32;0;0;
61815;PMS5003;57055;-35.296;149.168;2023-07-13T05:11:00;0;0;
61815;PMS5003;57055;-35.296;149.168;2023-07-13T05:13:30;0;0;
61815;PMS5003;57055;-35.296;149.168;2023-07-13T05:16:05;0;0;
61815;PMS5003;57055;-35.296;149.168;2023-07-13T05:18:34;1;0;
61815;PMS5003;57055;-35.296;149.168;2023-07-13T05:21:05;1;1;
61815;PMS5003;57055;-35.296;149.168;2023-07-13T05:23:35;0;0;
61815;PMS5003;57055;-35.296;149.168;2023-07-13T05:26:06;1;1;
61815;PMS5003;57055;-35.296;149.168;2023-07-13T05:28:35;1;1;
61815;PMS5003;57055;-35.296;149.168;2023-07-13T05:31:06;2;0;
61815;PMS5003;57055;-35.296;149.168;2023-07-13T05:33:36;0;0;
61815;PMS5003;57055;-35.296;149.168;2023-07-13T05:36:05;0;0;
61815;PMS5003;57055;-35.296;149.168;2023-07-13T05:38:34;1;1;
61815;PMS5003;57055;-35.296;149.168;2023-07-13T05:41:03;2;0;
61815;PMS5003;57055;-35.296;149.168;2023-07-13T05:43:32;0;0;
61815;PMS5003;57055;-35.296;149.168;2023-07-13T05:46:01;0;0;
61815;PMS5003;57055;-35.296;149.168;2023-07-13T05:48:31;1;1;
61815;PMS5003;57055;-35.296;149.168;2023-07-13T05:51:01;2;0;
61815;PMS5003;57055;-35.296;149.168;2023-07-13T05:53:30;1;1;
61815;PMS5003;57055;-35.296;149.168;2023-07-13T05:55:59;0;0;
61815;PMS5003;57055;-35.296;149.168;2023-07-13T05:58:27;0;0;
61815;PMS5003;57055;-35.296;149.168;2023-07-13T06:01:01;0;0;
61815;PMS5003;57055;-35.296;149.168;2023-07-13T06:03:32;0;0;
61815;PMS5003;57055;-35.296;149.168;2023-07-13T06:06:01;0;0;
61815;PMS5003;57055;-35.296;149.168;2023-07-13T06:08:29;0;0;
61815;PMS5003;57055;-35.296;149.168;2023-07-13T06:11:03;1;1;
61815;PMS5003;57055;-35.296;149.168;2023-07-13T06:13:34;0;0;
61815;PMS5003;57055;-35.296;149.168;2023-07-13T06:16:02;0;0;
61815;PMS5003;57055;-35.296;149.168;2023-07-13T06:18:33;0;0;
61815;PMS5003;57055;-35.296;149.168;2023-07-13T06:21:06;1;1;
61815;PMS5003;57055;-35.296;149.168;2023-07-13T06:23:36;0;0;
61815;PMS5003;57055;-35.296;149.168;2023-07-13T06:26:05;0;0;
61815;PMS5003;57055;-35.296;149.168;2023-07-13T06:28:35;0;0;
61815;PMS5003;57055;-35.296;149.168;2023-07-13T06:31:05;1;0;
61815;PMS5003;57055;-35.296;149.168;2023-07-13T06:33:35;1;1;
61815;PMS5003;57055;-35.296;149.168;2023-07-13T06:36:05;3;2;
61815;PMS5003;57055;-35.296;149.168;2023-07-13T06:38:36;0;0;
61815;PMS5003;57055;-35.296;149.168;2023-07-13T06:41:06;1;1;
61815;PMS5003;57055;-35.296;149.168;2023-07-13T06:43:35;1;1;
61815;PMS5003;57055;-35.296;149.168;2023-07-13T06:46:03;1;1;
61815;PMS5003;57055;-35.296;149.168;2023-07-13T06:48:32;0;0;
61815;PMS5003;57055;-35.296;149.168;2023-07-13T06:51:01;2;1;
61815;PMS5003;57055;-35.296;149.168;2023-07-13T06:53:30;2;1;
61815;PMS5003;57055;-35.296;149.168;2023-07-13T06:55:58;0;0;
61815;PMS5003;57055;-35.296;149.168;2023-07-13T06:58:27;1;1;
61815;PMS5003;57055;-35.296;149.168;2023-07-13T07:00:56;1;1;
61815;PMS5003;57055;-35.296;149.168;2023-07-13T07:03:25;3;1;
61815;PMS5003;57055;-35.296;149.168;2023-07-13T07:05:54;2;1;
61815;PMS5003;57055;-35.296;149.168;2023-07-13T07:08:28;0;0;
61815;PMS5003;57055;-35.296;149.168;2023-07-13T07:10:57;1;1;
61815;PMS5003;57055;-35.296;149.168;2023-07-13T07:13:26;1;1;
61815;PMS5003;57055;-35.296;149.168;2023-07-13T07:15:54;0;0;
61815;PMS5003;57055;-35.296;149.168;2023-07-13T07:18:23;0;0;
61815;PMS5003;57055;-35.296;149.168;2023-07-13T07:20:52;1;1;
61815;PMS5003;57055;-35.296;149.168;2023-07-13T07:23:21;0;0;
61815;PMS5003;57055;-35.296;149.168;2023-07-13T07:25:49;2;2;
61815;PMS5003;57055;-35.296;149.168;2023-07-13T07:28:18;1;1;
61815;PMS5003;57055;-35.296;149.168;2023-07-13T07:30:49;3;2;
61815;PMS5003;57055;-35.296;149.168;2023-07-13T07:33:22;3;1;
61815;PMS5003;57055;-35.296;149.168;2023-07-13T07:35:52;1;1;
61815;PMS5003;57055;-35.296;149.168;2023-07-13T07:38:21;2;2;
61815;PMS5003;57055;-35.296;149.168;2023-07-13T07:40:51;1;1;
61815;PMS5003;57055;-35.296;149.168;2023-07-13T07:43:20;2;1;
61815;PMS5003;57055;-35.296;149.168;2023-07-13T07:45:48;1;1;
61815;PMS5003;57055;-35.296;149.168;2023-07-13T07:48:17;1;1;
61815;PMS5003;57055;-35.296;149.168;2023-07-13T07:50:46;3;2;
61815;PMS5003;57055;-35.296;149.168;2023-07-13T07:53:15;0;0;
61815;PMS5003;57055;-35.296;149.168;2023-07-13T07:55:43;4;2;
61815;PMS5003;57055;-35.296;149.168;2023-07-13T07:58:12;0;0;
61815;PMS5003;57055;-35.296;149.168;2023-07-13T08:00:41;1;1;
61815;PMS5003;57055;-35.296;149.168;2023-07-13T08:03:10;1;1;
61815;PMS5003;57055;-35.296;149.168;2023-07-13T08:05:39;1;1;
61815;PMS5003;57055;-35.296;149.168;2023-07-13T08:08:07;4;3;
61815;PMS5003;57055;-35.296;149.168;2023-07-13T08:10:36;1;1;
61815;PMS5003;57055;-35.296;149.168;2023-07-13T08:13:05;1;1;
61815;PMS5003;57055;-35.296;149.168;2023-07-13T08:15:34;2;2;
61815;PMS5003;57055;-35.296;149.168;2023-07-13T08:18:03;3;3;
61815;PMS5003;57055;-35.296;149.168;2023-07-13T08:20:32;3;3;
61815;PMS5003;57055;-35.296;149.168;2023-07-13T08:23:03;2;2;
61815;PMS5003;57055;-35.296;149.168;2023-07-13T08:25:33;3;2;
61815;PMS5003;57055;-35.296;149.168;2023-07-13T08:28:02;2;2;
61815;PMS5003;57055;-35.296;149.168;2023-07-13T08:30:31;2;2;
61815;PMS5003;57055;-35.296;149.168;2023-07-13T08:33:00;2;2;
61815;PMS5003;57055;-35.296;149.168;2023-07-13T08:35:29;2;2;
61815;PMS5003;57055;-35.296;149.168;2023-07-13T08:37:58;0;0;
61815;PMS5003;57055;-35.296;149.168;2023-07-13T08:40:27;2;2;
61815;PMS5003;57055;-35.296;149.168;2023-07-13T08:42:58;1;1;
61815;PMS5003;57055;-35.296;149.168;2023-07-13T08:45:28;4;3;
61815;PMS5003;57055;-35.296;149.168;2023-07-13T08:48:05;0;0;
61815;PMS5003;57055;-35.296;149.168;2023-07-13T08:50:42;2;2;
61815;PMS5003;57055;-35.296;149.168;2023-07-13T08:53:16;2;2;
61815;PMS5003;57055;-35.296;149.168;2023-07-13T08:55:45;2;2;
61815;PMS5003;57055;-35.296;149.168;2023-07-13T08:58:15;2;2;
61815;PMS5003;57055;-35.296;149.168;2023-07-13T09:00:48;2;2;
61815;PMS5003;57055;-35.296;149.168;2023-07-13T09:03:23;2;2;
61815;PMS5003;57055;-35.296;149.168;2023-07-13T09:05:59;2;2;
61815;PMS5003;57055;-35.296;149.168;2023-07-13T09:08:33;2;2;
61815;PMS5003;57055;-35.296;149.168;2023-07-13T09:11:13;4;3;
61815;PMS5003;57055;-35.296;149.168;2023-07-13T09:13:53;2;2;
61815;PMS5003;57055;-35.296;149.168;2023-07-13T09:16:32;3;3;
61815;PMS5003;57055;-35.296;149.168;2023-07-13T09:19:04;1;1;
61815;PMS5003;57055;-35.296;149.168;2023-07-13T09:21:39;2;2;
61815;PMS5003;57055;-35.296;149.168;2023-07-13T09:24:28;3;3;
61815;PMS5003;57055;-35.296;149.168;2023-07-13T09:27:02;3;3;
61815;PMS5003;57055;-35.296;149.168;2023-07-13T09:29:41;3;3;
61815;PMS5003;57055;-35.296;149.168;2023-07-13T09:32:15;2;2;
61815;PMS5003;57055;-35.296;149.168;2023-07-13T09:34:51;4;4;
61815;PMS5003;57055;-35.296;149.168;2023-07-13T09:37:21;2;2;
61815;PMS5003;57055;-35.296;149.168;2023-07-13T09:39:56;3;3;
61815;PMS5003;57055;-35.296;149.168;2023-07-13T09:42:29;3;3;
61815;PMS5003;57055;-35.296;149.168;2023-07-13T09:45:00;4;4;
61815;PMS5003;57055;-35.296;149.168;2023-07-13T09:47:31;3;3;
61815;PMS5003;57055;-35.296;149.168;2023-07-13T09:50:06;3;3;
61815;PMS5003;57055;-35.296;149.168;2023-07-13T09:52:42;3;3;
61815;PMS5003;57055;-35.296;149.168;2023-07-13T09:55:30;4;2;
61815;PMS5003;57055;-35.296;149.168;2023-07-13T09:58:06;4;4;
61815;PMS5003;57055;-35.296;149.168;2023-07-13T10:00:39;4;3;
61815;PMS5003;57055;-35.296;149.168;2023-07-13T10:03:16;3;3;
61815;PMS5003;57055;-35.296;149.168;2023-07-13T10:05:47;5;4;
61815;PMS5003;57055;-35.296;149.168;2023-07-13T10:08:19;3;3;
61815;PMS5003;57055;-35.296;149.168;2023-07-13T10:10:57;3;3;
61815;PMS5003;57055;-35.296;149.168;2023-07-13T10:13:29;3;3;
61815;PMS5003;57055;-35.296;149.168;2023-07-13T10:16:01;5;5;
61815;PMS5003;57055;-35.296;149.168;2023-07-13T10:18:37;5;4;
61815;PMS5003;57055;-35.296;149.168;2023-07-13T10:21:11;4;4;
61815;PMS5003;57055;-35.296;149.168;2023-07-13T10:23:42;5;5;
61815;PMS5003;57055;-35.296;149.168;2023-07-13T10:26:15;5;5;
61815;PMS5003;57055;-35.296;149.168;2023-07-13T10:28:47;5;5;
61815;PMS5003;57055;-35.296;149.168;2023-07-13T10:31:22;5;5;
61815;PMS5003;57055;-35.296;149.168;2023-07-13T10:33:50;3;3;
61815;PMS5003;57055;-35.296;149.168;2023-07-13T10:36:28;3;3;
61815;PMS5003;57055;-35.296;149.168;2023-07-13T10:39:01;3;3;
61815;PMS5003;57055;-35.296;149.168;2023-07-13T10:41:33;3;3;
61815;PMS5003;57055;-35.296;149.168;2023-07-13T10:44:06;3;3;
61815;PMS5003;57055;-35.296;149.168;2023-07-13T10:46:44;3;3;
61815;PMS5003;57055;-35.296;149.168;2023-07-13T10:49:14;3;3;
61815;PMS5003;57055;-35.296;149.168;2023-07-13T10:51:44;4;4;
61815;PMS5003;57055;-35.296;149.168;2023-07-13T10:54:18;7;6;
61815;PMS5003;57055;-35.296;149.168;2023-07-13T10:56:50;7;5;
61815;PMS5003;57055;-35.296;149.168;2023-07-13T10:59:24;4;4;
61815;PMS5003;57055;-35.296;149.168;2023-07-13T11:01:55;5;5;
61815;PMS5003;57055;-35.296;149.168;2023-07-13T11:04:27;4;4;
61815;PMS5003;57055;-35.296;149.168;2023-07-13T11:07:11;4;4;
61815;PMS5003;57055;-35.296;149.168;2023-07-13T11:09:49;5;5;
61815;PMS5003;57055;-35.296;149.168;2023-07-13T11:12:27;4;4;
61815;PMS5003;57055;-35.296;149.168;2023-07-13T11:15:26;5;5;
61815;PMS5003;57055;-35.296;149.168;2023-07-13T11:18:19;5;5;
61815;PMS5003;57055;-35.296;149.168;2023-07-13T11:20:49;7;6;
61815;PMS5003;57055;-35.296;149.168;2023-07-13T11:23:20;6;6;
61815;PMS5003;57055;-35.296;149.168;2023-07-13T11:25:56;7;7;
61815;PMS5003;57055;-35.296;149.168;2023-07-13T11:28:26;7;7;
61815;PMS5003;57055;-35.296;149.168;2023-07-13T11:31:01;7;7;
61815;PMS5003;57055;-35.296;149.168;2023-07-13T11:33:48;7;6;
61815;PMS5003;57055;-35.296;149.168;2023-07-13T11:36:20;7;7;
61815;PMS5003;57055;-35.296;149.168;2023-07-13T11:38:56;7;7;
61815;PMS5003;57055;-35.296;149.168;2023-07-13T11:41:29;7;7;
61815;PMS5003;57055;-35.296;149.168;2023-07-13T11:44:06;7;7;
61815;PMS5003;57055;-35.296;149.168;2023-07-13T11:46:43;8;8;
61815;PMS5003;57055;-35.296;149.168;2023-07-13T11:49:15;8;7;
61815;PMS5003;57055;-35.296;149.168;2023-07-13T11:51:45;8;7;
61815;PMS5003;57055;-35.296;149.168;2023-07-13T11:54:23;7;7;
61815;PMS5003;57055;-35.296;149.168;2023-07-13T11:56:55;7;7;
61815;PMS5003;57055;-35.296;149.168;2023-07-13T11:59:26;8;8;
61815;PMS5003;57055;-35.296;149.168;2023-07-13T12:01:56;7;7;
61815;PMS5003;57055;-35.296;149.168;2023-07-13T12:04:27;7;7;
61815;PMS5003;57055;-35.296;149.168;2023-07-13T12:06:58;6;4;
61815;PMS5003;57055;-35.296;149.168;2023-07-13T12:09:33;8;8;
61815;PMS5003;57055;-35.296;149.168;2023-07-13T12:12:03;5;5;
61815;PMS5003;57055;-35.296;149.168;2023-07-13T12:14:37;6;6;
61815;PMS5003;57055;-35.296;149.168;2023-07-13T12:17:09;5;5;
61815;PMS5003;57055;-35.296;149.168;2023-07-13T12:19:49;6;6;
61815;PMS5003;57055;-35.296;149.168;2023-07-13T12:22:20;6;6;
61815;PMS5003;57055;-35.296;149.168;2023-07-13T12:24:50;8;8;
61815;PMS5003;57055;-35.296;149.168;2023-07-13T12:27:20;9;8;
61815;PMS5003;57055;-35.296;149.168;2023-07-13T12:29:51;9;7;
61815;PMS5003;57055;-35.296;149.168;2023-07-13T12:32:25;6;6;
61815;PMS5003;57055;-35.296;149.168;2023-07-13T12:34:55;10;8;
61815;PMS5003;57055;-35.296;149.168;2023-07-13T12:37:28;6;6;
61815;PMS5003;57055;-35.296;149.168;2023-07-13T12:40:01;7;7;
61815;PMS5003;57055;-35.296;149.168;2023-07-13T12:42:33;8;8;
61815;PMS5003;57055;-35.296;149.168;2023-07-13T12:45:22;9;8;
61815;PMS5003;57055;-35.296;149.168;2023-07-13T12:47:53;7;5;
61815;PMS5003;57055;-35.296;149.168;2023-07-13T12:50:30;7;7;
61815;PMS5003;57055;-35.296;149.168;2023-07-13T12:53:05;7;7;
61815;PMS5003;57055;-35.296;149.168;2023-07-13T12:55:41;7;7;
61815;PMS5003;57055;-35.296;149.168;2023-07-13T12:58:16;7;7;
61815;PMS5003;57055;-35.296;149.168;2023-07-13T13:00:50;7;7;
61815;PMS5003;57055;-35.296;149.168;2023-07-13T13:03:22;9;7;
61815;PMS5003;57055;-35.296;149.168;2023-07-13T13:05:59;8;7;
61815;PMS5003;57055;-35.296;149.168;2023-07-13T13:08:29;7;7;
61815;PMS5003;57055;-35.296;149.168;2023-07-13T13:11:00;9;8;
61815;PMS5003;57055;-35.296;149.168;2023-07-13T13:13:29;6;6;
61815;PMS5003;57055;-35.296;149.168;2023-07-13T13:16:01;7;7;
61815;PMS5003;57055;-35.296;149.168;2023-07-13T13:18:36;11;8;
61815;PMS5003;57055;-35.296;149.168;2023-07-13T13:21:05;5;5;
61815;PMS5003;57055;-35.296;149.168;2023-07-13T13:23:33;8;7;
61815;PMS5003;57055;-35.296;149.168;2023-07-13T13:26:02;9;7;
61815;PMS5003;57055;-35.296;149.168;2023-07-13T13:28:35;7;7;
61815;PMS5003;57055;-35.296;149.168;2023-07-13T13:31:04;8;8;
61815;PMS5003;57055;-35.296;149.168;2023-07-13T13:33:33;6;6;
61815;PMS5003;57055;-35.296;149.168;2023-07-13T13:36:02;7;7;
61815;PMS5003;57055;-35.296;149.168;2023-07-13T13:38:31;7;7;
61815;PMS5003;57055;-35.296;149.168;2023-07-13T13:41:01;9;7;
61815;PMS5003;57055;-35.296;149.168;2023-07-13T13:43:30;6;6;
61815;PMS5003;57055;-35.296;149.168;2023-07-13T13:45:59;8;6;
61815;PMS5003;57055;-35.296;149.168;2023-07-13T13:48:30;6;6;
61815;PMS5003;57055;-35.296;149.168;2023-07-13T13:51:03;8;7;
61815;PMS5003;57055;-35.296;149.168;2023-07-13T13:53:40;8;8;
61815;PMS5003;57055;-35.296;149.168;2023-07-13T13:56:09;9;9;
61815;PMS5003;57055;-35.296;149.168;2023-07-13T13:58:38;8;8;
61815;PMS5003;57055;-35.296;149.168;2023-07-13T14:01:11;8;8;
61815;PMS5003;57055;-35.296;149.168;2023-07-13T14:03:43;7;7;
61815;PMS5003;57055;-35.296;149.168;2023-07-13T14:06:12;10;10;
61815;PMS5003;57055;-35.296;149.168;2023-07-13T14:08:42;8;8;
61815;PMS5003;57055;-35.296;149.168;2023-07-13T14:11:11;10;10;
61815;PMS5003;57055;-35.296;149.168;2023-07-13T14:13:43;14;9;
61815;PMS5003;57055;-35.296;149.168;2023-07-13T14:16:16;9;9;
61815;PMS5003;57055;-35.296;149.168;2023-07-13T14:18:46;11;11;
61815;PMS5003;57055;-35.296;149.168;2023-07-13T14:21:17;9;9;
61815;PMS5003;57055;-35.296;149.168;2023-07-13T14:23:48;12;12;
61815;PMS5003;57055;-35.296;149.168;2023-07-13T14:26:18;15;14;
61815;PMS5003;57055;-35.296;149.168;2023-07-13T14:28:50;16;16;
61815;PMS5003;57055;-35.296;149.168;2023-07-13T14:31:20;18;16;
61815;PMS5003;57055;-35.296;149.168;2023-07-13T14:33:51;18;17;
61815;PMS5003;57055;-35.296;149.168;2023-07-13T14:36:23;17;16;
61815;PMS5003;57055;-35.296;149.168;2023-07-13T14:38:57;14;14;
61815;PMS5003;57055;-35.296;149.168;2023-07-13T14:41:28;24;22;
61815;PMS5003;57055;-35.296;149.168;2023-07-13T14:43:57;16;16;
61815;PMS5003;57055;-35.296;149.168;2023-07-13T14:46:28;17;17;
61815;PMS5003;57055;-35.296;149.168;2023-07-13T14:49:01;19;18;
61815;PMS5003;57055;-35.296;149.168;2023-07-13T14:51:32;21;18;
61815;PMS5003;57055;-35.296;149.168;2023-07-13T14:54:03;17;16;
61815;PMS5003;57055;-35.296;149.168;2023-07-13T14:56:33;16;15;
61815;PMS5003;57055;-35.296;149.168;2023-07-13T14:59:02;22;21;
61815;PMS5003;57055;-35.296;149.168;2023-07-13T15:01:31;20;20;
61815;PMS5003;57055;-35.296;149.168;2023-07-13T15:04:00;19;16;
61815;PMS5003;57055;-35.296;149.168;2023-07-13T15:06:30;19;18;
61815;PMS5003;57055;-35.296;149.168;2023-07-13T15:09:19;20;18;
61815;PMS5003;57055;-35.296;149.168;2023-07-13T15:11:48;18;17;
61815;PMS5003;57055;-35.296;149.168;2023-07-13T15:14:17;19;18;
61815;PMS5003;57055;-35.296;149.168;2023-07-13T15:16:46;18;16;
61815;PMS5003;57055;-35.296;149.168;2023-07-13T15:19:16;18;18;
61815;PMS5003;57055;-35.296;149.168;2023-07-13T15:21:48;21;19;
61815;PMS5003;57055;-35.296;149.168;2023-07-13T15:24:17;21;21;
61815;PMS5003;57055;-35.296;149.168;2023-07-13T15:26:46;19;18;
61815;PMS5003;57055;-35.296;149.168;2023-07-13T15:29:15;17;17;
61815;PMS5003;57055;-35.296;149.168;2023-07-13T15:31:44;19;18;
61815;PMS5003;57055;-35.296;149.168;2023-07-13T15:34:15;17;17;
61815;PMS5003;57055;-35.296;149.168;2023-07-13T15:36:48;19;19;
61815;PMS5003;57055;-35.296;149.168;2023-07-13T15:39:17;22;20;
61815;PMS5003;57055;-35.296;149.168;2023-07-13T15:41:46;17;14;
61815;PMS5003;57055;-35.296;149.168;2023-07-13T15:44:22;20;20;
61815;PMS5003;57055;-35.296;149.168;2023-07-13T15:46:54;19;16;
61815;PMS5003;57055;-35.296;149.168;2023-07-13T15:49:23;17;17;
61815;PMS5003;57055;-35.296;149.168;2023-07-13T15:51:52;22;19;
61815;PMS5003;57055;-35.296;149.168;2023-07-13T15:54:22;20;20;
61815;PMS5003;57055;-35.296;149.168;2023-07-13T15:56:53;18;16;
61815;PMS5003;57055;-35.296;149.168;2023-07-13T15:59:22;21;18;
61815;PMS5003;57055;-35.296;149.168;2023-07-13T16:01:51;18;18;
61815;PMS5003;57055;-35.296;149.168;2023-07-13T16:04:20;21;21;
61815;PMS5003;57055;-35.296;149.168;2023-07-13T16:06:49;23;19;
61815;PMS5003;57055;-35.296;149.168;2023-07-13T16:09:19;23;18;
61815;PMS5003;57055;-35.296;149.168;2023-07-13T16:11:50;19;18;
61815;PMS5003;57055;-35.296;149.168;2023-07-13T16:14:20;19;19;
61815;PMS5003;57055;-35.296;149.168;2023-07-13T16:16:48;22;20;
61815;PMS5003;57055;-35.296;149.168;2023-07-13T16:19:17;21;18;
61815;PMS5003;57055;-35.296;149.168;2023-07-13T16:21:47;21;19;